Wimbledon, North Dakota
Current Conditions -  °F | °C
As of 9:56 PM on Wednesday 28 Jan 2015 (Local Time) from KJMS Reporting Station
Overcast Overcast  
Wind Chill: 13°   Ceiling: 1300
Heat Index: 28°   Visibility: 10mi
Dew Point: 23°   Wind: 28mph
Humidity: 81%   Direction: 330°NNW
Pressure: 30.07"   Gusts: 37mph
Location:  47.17°N, 98.46°W
Report Text: KJMS 290356Z AUTO 33024G32KT 10SM OVC013 M02/M05 A3007 RMK AO2 PK WND 33032/0354 SLP205 T10221050
Loading
Personal Weather Stations






























Interactive Weather Map New forecast layout! Learn more

10-Day Weather Forecast

Advertisements
Track Severe Weather on mobile